sensor_id;sensor_type;location;lat;lon;timestamp;temperature;humidity
12704;DHT22;6416;52.182;7.650;2024-03-08T00:00:45;6.50;66.00
12704;DHT22;6416;52.182;7.650;2024-03-08T00:03:10;6.50;66.00
12704;DHT22;6416;52.182;7.650;2024-03-08T00:05:36;6.40;65.80
12704;DHT22;6416;52.182;7.650;2024-03-08T00:08:01;6.50;66.00
12704;DHT22;6416;52.182;7.650;2024-03-08T00:10:26;6.50;66.00
12704;DHT22;6416;52.182;7.650;2024-03-08T00:12:52;6.40;65.90
12704;DHT22;6416;52.182;7.650;2024-03-08T00:15:17;6.40;65.90
12704;DHT22;6416;52.182;7.650;2024-03-08T00:17:43;6.40;66.00
12704;DHT22;6416;52.182;7.650;2024-03-08T00:20:09;6.40;66.00
12704;DHT22;6416;52.182;7.650;2024-03-08T00:22:35;6.40;66.00
12704;DHT22;6416;52.182;7.650;2024-03-08T00:25:00;6.40;66.00
12704;DHT22;6416;52.182;7.650;2024-03-08T00:27:25;6.40;66.00
12704;DHT22;6416;52.182;7.650;2024-03-08T00:29:51;6.40;66.00
12704;DHT22;6416;52.182;7.650;2024-03-08T00:32:16;6.40;66.00
12704;DHT22;6416;52.182;7.650;2024-03-08T00:34:42;6.40;66.00
12704;DHT22;6416;52.182;7.650;2024-03-08T00:37:07;6.40;66.00
12704;DHT22;6416;52.182;7.650;2024-03-08T00:39:32;6.40;66.10
12704;DHT22;6416;52.182;7.650;2024-03-08T00:41:58;6.40;66.10
12704;DHT22;6416;52.182;7.650;2024-03-08T00:44:23;6.40;66.10
12704;DHT22;6416;52.182;7.650;2024-03-08T00:46:48;6.40;66.10
12704;DHT22;6416;52.182;7.650;2024-03-08T00:49:14;6.40;66.10
12704;DHT22;6416;52.182;7.650;2024-03-08T00:51:39;6.40;66.10
12704;DHT22;6416;52.182;7.650;2024-03-08T00:54:05;6.40;66.10
12704;DHT22;6416;52.182;7.650;2024-03-08T00:56:30;6.50;66.10
12704;DHT22;6416;52.182;7.650;2024-03-08T00:58:55;6.50;66.10
12704;DHT22;6416;52.182;7.650;2024-03-08T01:01:21;6.50;66.10
12704;DHT22;6416;52.182;7.650;2024-03-08T01:03:47;6.50;66.10
12704;DHT22;6416;52.182;7.650;2024-03-08T01:06:12;6.50;66.10
12704;DHT22;6416;52.182;7.650;2024-03-08T01:08:37;6.40;66.00
12704;DHT22;6416;52.182;7.650;2024-03-08T01:11:03;6.50;66.10
12704;DHT22;6416;52.182;7.650;2024-03-08T01:13:29;6.50;66.10
12704;DHT22;6416;52.182;7.650;2024-03-08T01:15:54;6.50;66.00
12704;DHT22;6416;52.182;7.650;2024-03-08T01:18:19;6.50;66.10
12704;DHT22;6416;52.182;7.650;2024-03-08T01:20:45;6.50;66.00
12704;DHT22;6416;52.182;7.650;2024-03-08T01:23:10;6.50;66.00
12704;DHT22;6416;52.182;7.650;2024-03-08T01:25:36;6.50;66.00
12704;DHT22;6416;52.182;7.650;2024-03-08T01:28:01;6.50;66.00
12704;DHT22;6416;52.182;7.650;2024-03-08T01:30:27;6.50;66.00
12704;DHT22;6416;52.182;7.650;2024-03-08T01:32:52;6.50;65.90
12704;DHT22;6416;52.182;7.650;2024-03-08T01:35:17;6.40;65.80
12704;DHT22;6416;52.182;7.650;2024-03-08T01:37:43;6.40;65.90
12704;DHT22;6416;52.182;7.650;2024-03-08T01:40:08;6.40;65.90
12704;DHT22;6416;52.182;7.650;2024-03-08T01:42:34;6.40;65.90
12704;DHT22;6416;52.182;7.650;2024-03-08T01:44:59;6.40;65.90
12704;DHT22;6416;52.182;7.650;2024-03-08T01:47:25;6.40;65.90
12704;DHT22;6416;52.182;7.650;2024-03-08T01:49:50;6.40;65.90
12704;DHT22;6416;52.182;7.650;2024-03-08T01:52:16;6.40;65.90
12704;DHT22;6416;52.182;7.650;2024-03-08T01:54:42;6.40;65.80
12704;DHT22;6416;52.182;7.650;2024-03-08T01:57:07;6.50;65.90
12704;DHT22;6416;52.182;7.650;2024-03-08T01:59:33;6.40;65.80
12704;DHT22;6416;52.182;7.650;2024-03-08T02:02:00;6.40;65.80
12704;DHT22;6416;52.182;7.650;2024-03-08T02:04:26;6.40;65.80
12704;DHT22;6416;52.182;7.650;2024-03-08T02:06:52;6.40;65.70
12704;DHT22;6416;52.182;7.650;2024-03-08T02:09:17;6.40;65.70
12704;DHT22;6416;52.182;7.650;2024-03-08T02:11:43;6.40;65.70
12704;DHT22;6416;52.182;7.650;2024-03-08T02:14:08;6.40;65.70
12704;DHT22;6416;52.182;7.650;2024-03-08T02:16:33;6.40;65.80
12704;DHT22;6416;52.182;7.650;2024-03-08T02:18:59;6.30;65.70
12704;DHT22;6416;52.182;7.650;2024-03-08T02:21:24;6.30;65.70
12704;DHT22;6416;52.182;7.650;2024-03-08T02:23:50;6.30;65.80
12704;DHT22;6416;52.182;7.650;2024-03-08T02:26:16;6.40;65.80
12704;DHT22;6416;52.182;7.650;2024-03-08T02:28:41;6.30;65.70
12704;DHT22;6416;52.182;7.650;2024-03-08T02:31:07;6.30;65.60
12704;DHT22;6416;52.182;7.650;2024-03-08T02:33:32;6.30;65.50
12704;DHT22;6416;52.182;7.650;2024-03-08T02:35:58;6.30;65.50
12704;DHT22;6416;52.182;7.650;2024-03-08T02:38:23;6.30;65.50
12704;DHT22;6416;52.182;7.650;2024-03-08T02:40:49;6.30;65.50
12704;DHT22;6416;52.182;7.650;2024-03-08T02:43:15;6.20;65.40
12704;DHT22;6416;52.182;7.650;2024-03-08T02:45:41;6.20;65.40
12704;DHT22;6416;52.182;7.650;2024-03-08T02:48:07;6.20;65.30
12704;DHT22;6416;52.182;7.650;2024-03-08T02:50:33;6.20;65.40
12704;DHT22;6416;52.182;7.650;2024-03-08T02:52:58;6.20;65.40
12704;DHT22;6416;52.182;7.650;2024-03-08T02:55:23;6.10;65.30
12704;DHT22;6416;52.182;7.650;2024-03-08T02:57:49;6.10;65.30
12704;DHT22;6416;52.182;7.650;2024-03-08T03:00:14;6.10;65.30
12704;DHT22;6416;52.182;7.650;2024-03-08T03:02:40;6.10;65.30
12704;DHT22;6416;52.182;7.650;2024-03-08T03:05:05;6.10;65.30
12704;DHT22;6416;52.182;7.650;2024-03-08T03:07:34;6.10;65.30
12704;DHT22;6416;52.182;7.650;2024-03-08T03:09:59;6.00;65.30
12704;DHT22;6416;52.182;7.650;2024-03-08T03:12:25;6.00;65.30
12704;DHT22;6416;52.182;7.650;2024-03-08T03:14:50;6.00;65.30
12704;DHT22;6416;52.182;7.650;2024-03-08T03:17:16;6.00;65.30
12704;DHT22;6416;52.182;7.650;2024-03-08T03:19:41;6.00;65.30
12704;DHT22;6416;52.182;7.650;2024-03-08T03:22:06;6.00;65.30
12704;DHT22;6416;52.182;7.650;2024-03-08T03:24:32;6.00;65.30
12704;DHT22;6416;52.182;7.650;2024-03-08T03:26:58;6.00;65.40
12704;DHT22;6416;52.182;7.650;2024-03-08T03:29:23;6.00;65.40
12704;DHT22;6416;52.182;7.650;2024-03-08T03:31:48;6.00;65.40
12704;DHT22;6416;52.182;7.650;2024-03-08T03:34:14;6.00;65.40
12704;DHT22;6416;52.182;7.650;2024-03-08T03:36:39;5.90;65.30
12704;DHT22;6416;52.182;7.650;2024-03-08T03:39:05;5.90;65.30
12704;DHT22;6416;52.182;7.650;2024-03-08T03:41:30;5.90;65.30
12704;DHT22;6416;52.182;7.650;2024-03-08T03:43:55;5.90;65.40
12704;DHT22;6416;52.182;7.650;2024-03-08T03:46:21;5.90;65.30
12704;DHT22;6416;52.182;7.650;2024-03-08T03:48:46;5.90;65.30
12704;DHT22;6416;52.182;7.650;2024-03-08T03:51:12;5.90;65.30
12704;DHT22;6416;52.182;7.650;2024-03-08T03:53:37;5.90;65.30
12704;DHT22;6416;52.182;7.650;2024-03-08T03:56:03;5.80;65.20
12704;DHT22;6416;52.182;7.650;2024-03-08T03:58:28;5.80;65.20
12704;DHT22;6416;52.182;7.650;2024-03-08T04:00:54;5.80;65.30
12704;DHT22;6416;52.182;7.650;2024-03-08T04:03:19;5.80;65.20
12704;DHT22;6416;52.182;7.650;2024-03-08T04:05:45;5.80;65.20
12704;DHT22;6416;52.182;7.650;2024-03-08T04:08:11;5.80;65.30
12704;DHT22;6416;52.182;7.650;2024-03-08T04:10:36;5.80;65.30
12704;DHT22;6416;52.182;7.650;2024-03-08T04:13:02;5.80;65.30
12704;DHT22;6416;52.182;7.650;2024-03-08T04:15:27;5.70;65.20
12704;DHT22;6416;52.182;7.650;2024-03-08T04:17:52;5.70;65.20
12704;DHT22;6416;52.182;7.650;2024-03-08T04:20:21;5.70;65.20
12704;DHT22;6416;52.182;7.650;2024-03-08T04:22:46;5.70;65.20
12704;DHT22;6416;52.182;7.650;2024-03-08T04:25:12;5.70;65.20
12704;DHT22;6416;52.182;7.650;2024-03-08T04:27:37;5.70;65.20
12704;DHT22;6416;52.182;7.650;2024-03-08T04:30:03;5.70;65.20
12704;DHT22;6416;52.182;7.650;2024-03-08T04:32:28;5.60;65.10
12704;DHT22;6416;52.182;7.650;2024-03-08T04:34:54;5.70;65.20
12704;DHT22;6416;52.182;7.650;2024-03-08T04:37:19;5.70;65.10
12704;DHT22;6416;52.182;7.650;2024-03-08T04:39:45;5.60;65.10
12704;DHT22;6416;52.182;7.650;2024-03-08T04:42:10;5.60;65.00
12704;DHT22;6416;52.182;7.650;2024-03-08T04:44:36;5.60;65.00
12704;DHT22;6416;52.182;7.650;2024-03-08T04:47:01;5.60;65.10
12704;DHT22;6416;52.182;7.650;2024-03-08T04:49:26;5.50;65.00
12704;DHT22;6416;52.182;7.650;2024-03-08T04:51:52;5.50;65.00
12704;DHT22;6416;52.182;7.650;2024-03-08T04:54:17;5.50;65.00
12704;DHT22;6416;52.182;7.650;2024-03-08T04:56:43;5.50;65.00
12704;DHT22;6416;52.182;7.650;2024-03-08T04:59:08;5.50;65.00
12704;DHT22;6416;52.182;7.650;2024-03-08T05:01:34;5.50;65.00
12704;DHT22;6416;52.182;7.650;2024-03-08T05:03:59;5.40;64.90
12704;DHT22;6416;52.182;7.650;2024-03-08T05:06:24;5.40;64.90
12704;DHT22;6416;52.182;7.650;2024-03-08T05:08:50;5.40;64.90
12704;DHT22;6416;52.182;7.650;2024-03-08T05:11:15;5.30;64.70
12704;DHT22;6416;52.182;7.650;2024-03-08T05:13:41;5.30;64.80
12704;DHT22;6416;52.182;7.650;2024-03-08T05:16:06;5.30;64.80
12704;DHT22;6416;52.182;7.650;2024-03-08T05:18:32;5.30;64.70
12704;DHT22;6416;52.182;7.650;2024-03-08T05:20:57;5.30;64.80
12704;DHT22;6416;52.182;7.650;2024-03-08T05:23:22;5.20;64.70
12704;DHT22;6416;52.182;7.650;2024-03-08T05:25:48;5.20;64.70
12704;DHT22;6416;52.182;7.650;2024-03-08T05:28:13;5.20;64.70
12704;DHT22;6416;52.182;7.650;2024-03-08T05:30:39;5.10;64.70
12704;DHT22;6416;52.182;7.650;2024-03-08T05:33:04;5.10;64.60
12704;DHT22;6416;52.182;7.650;2024-03-08T05:35:30;5.10;64.70
12704;DHT22;6416;52.182;7.650;2024-03-08T05:37:55;5.10;64.70
12704;DHT22;6416;52.182;7.650;2024-03-08T05:40:20;5.00;64.70
12704;DHT22;6416;52.182;7.650;2024-03-08T05:42:46;5.00;64.70
12704;DHT22;6416;52.182;7.650;2024-03-08T05:45:11;5.00;64.70
12704;DHT22;6416;52.182;7.650;2024-03-08T05:47:38;5.00;64.60
12704;DHT22;6416;52.182;7.650;2024-03-08T05:50:04;5.00;64.70
12704;DHT22;6416;52.182;7.650;2024-03-08T05:52:29;4.90;64.60
12704;DHT22;6416;52.182;7.650;2024-03-08T05:54:55;4.90;64.70
12704;DHT22;6416;52.182;7.650;2024-03-08T05:57:20;4.90;64.70
12704;DHT22;6416;52.182;7.650;2024-03-08T05:59:46;4.90;64.80
12704;DHT22;6416;52.182;7.650;2024-03-08T06:02:11;4.90;64.80
12704;DHT22;6416;52.182;7.650;2024-03-08T06:04:36;4.90;64.80
12704;DHT22;6416;52.182;7.650;2024-03-08T06:07:02;4.90;64.90
12704;DHT22;6416;52.182;7.650;2024-03-08T06:09:27;4.80;64.80
12704;DHT22;6416;52.182;7.650;2024-03-08T06:11:53;4.80;64.80
12704;DHT22;6416;52.182;7.650;2024-03-08T06:14:18;4.80;64.90
12704;DHT22;6416;52.182;7.650;2024-03-08T06:16:46;4.80;65.00
12704;DHT22;6416;52.182;7.650;2024-03-08T06:19:12;4.80;65.10
12704;DHT22;6416;52.182;7.650;2024-03-08T06:21:38;4.80;65.20
12704;DHT22;6416;52.182;7.650;2024-03-08T06:24:03;4.80;65.30
12704;DHT22;6416;52.182;7.650;2024-03-08T06:26:29;4.90;65.40
12704;DHT22;6416;52.182;7.650;2024-03-08T06:28:54;4.90;65.50
12704;DHT22;6416;52.182;7.650;2024-03-08T06:31:20;4.90;65.50
12704;DHT22;6416;52.182;7.650;2024-03-08T06:33:45;5.00;65.70
12704;DHT22;6416;52.182;7.650;2024-03-08T06:36:11;5.00;65.70
12704;DHT22;6416;52.182;7.650;2024-03-08T06:38:36;5.00;65.80
12704;DHT22;6416;52.182;7.650;2024-03-08T06:41:02;5.10;66.10
12704;DHT22;6416;52.182;7.650;2024-03-08T06:43:27;5.10;66.20
12704;DHT22;6416;52.182;7.650;2024-03-08T06:45:52;5.20;66.40
12704;DHT22;6416;52.182;7.650;2024-03-08T06:48:18;5.30;66.60
12704;DHT22;6416;52.182;7.650;2024-03-08T06:50:44;5.40;66.80
12704;DHT22;6416;52.182;7.650;2024-03-08T06:53:09;5.50;66.90
12704;DHT22;6416;52.182;7.650;2024-03-08T06:55:35;5.60;67.00
12704;DHT22;6416;52.182;7.650;2024-03-08T06:58:00;5.70;67.20
12704;DHT22;6416;52.182;7.650;2024-03-08T07:00:26;5.80;67.60
12704;DHT22;6416;52.182;7.650;2024-03-08T07:02:51;6.00;67.90
12704;DHT22;6416;52.182;7.650;2024-03-08T07:05:17;6.10;68.10
12704;DHT22;6416;52.182;7.650;2024-03-08T07:07:42;6.30;68.40
12704;DHT22;6416;52.182;7.650;2024-03-08T07:10:08;6.50;68.60
12704;DHT22;6416;52.182;7.650;2024-03-08T07:12:33;6.70;69.00
12704;DHT22;6416;52.182;7.650;2024-03-08T07:14:58;7.00;69.40
12704;DHT22;6416;52.182;7.650;2024-03-08T07:17:24;7.20;69.50
12704;DHT22;6416;52.182;7.650;2024-03-08T07:19:49;7.50;69.70
12704;DHT22;6416;52.182;7.650;2024-03-08T07:22:15;7.70;70.10
12704;DHT22;6416;52.182;7.650;2024-03-08T07:24:40;8.00;70.80
12704;DHT22;6416;52.182;7.650;2024-03-08T07:27:06;8.30;71.10
12704;DHT22;6416;52.182;7.650;2024-03-08T07:29:32;8.60;71.10
12704;DHT22;6416;52.182;7.650;2024-03-08T07:31:57;8.90;70.90
12704;DHT22;6416;52.182;7.650;2024-03-08T07:34:23;9.20;71.00
12704;DHT22;6416;52.182;7.650;2024-03-08T07:36:48;9.50;71.60
12704;DHT22;6416;52.182;7.650;2024-03-08T07:39:13;9.70;71.40
12704;DHT22;6416;52.182;7.650;2024-03-08T07:41:39;10.00;70.40
12704;DHT22;6416;52.182;7.650;2024-03-08T07:44:04;10.30;70.80
12704;DHT22;6416;52.182;7.650;2024-03-08T07:46:30;10.60;70.80
12704;DHT22;6416;52.182;7.650;2024-03-08T07:48:55;10.90;70.90
12704;DHT22;6416;52.182;7.650;2024-03-08T07:51:20;11.20;70.90
12704;DHT22;6416;52.182;7.650;2024-03-08T07:53:46;11.50;71.00
12704;DHT22;6416;52.182;7.650;2024-03-08T07:56:11;11.70;70.40
12704;DHT22;6416;52.182;7.650;2024-03-08T07:58:36;12.00;70.40
12704;DHT22;6416;52.182;7.650;2024-03-08T08:01:02;12.20;70.00
12704;DHT22;6416;52.182;7.650;2024-03-08T08:03:27;12.40;69.10
12704;DHT22;6416;52.182;7.650;2024-03-08T08:05:53;12.60;69.40
12704;DHT22;6416;52.182;7.650;2024-03-08T08:08:18;12.70;69.00
12704;DHT22;6416;52.182;7.650;2024-03-08T08:10:43;12.90;68.70
12704;DHT22;6416;52.182;7.650;2024-03-08T08:13:09;13.10;68.90
12704;DHT22;6416;52.182;7.650;2024-03-08T08:15:34;13.30;68.70
12704;DHT22;6416;52.182;7.650;2024-03-08T08:18:00;13.40;68.80
12704;DHT22;6416;52.182;7.650;2024-03-08T08:20:25;13.70;67.90
12704;DHT22;6416;52.182;7.650;2024-03-08T08:22:51;13.80;67.00
12704;DHT22;6416;52.182;7.650;2024-03-08T08:25:16;14.00;66.60
12704;DHT22;6416;52.182;7.650;2024-03-08T08:27:42;14.20;64.90
12704;DHT22;6416;52.182;7.650;2024-03-08T08:30:07;14.30;65.60
12704;DHT22;6416;52.182;7.650;2024-03-08T08:32:33;14.40;65.90
12704;DHT22;6416;52.182;7.650;2024-03-08T08:34:59;14.60;66.10
12704;DHT22;6416;52.182;7.650;2024-03-08T08:37:24;14.80;65.60
12704;DHT22;6416;52.182;7.650;2024-03-08T08:39:49;14.90;66.20
12704;DHT22;6416;52.182;7.650;2024-03-08T08:42:15;15.10;66.20
12704;DHT22;6416;52.182;7.650;2024-03-08T08:44:40;15.40;66.20
12704;DHT22;6416;52.182;7.650;2024-03-08T08:47:06;15.60;66.20
12704;DHT22;6416;52.182;7.650;2024-03-08T08:49:31;15.80;66.20
12704;DHT22;6416;52.182;7.650;2024-03-08T08:51:56;16.10;66.20
12704;DHT22;6416;52.182;7.650;2024-03-08T08:54:22;16.30;65.80
12704;DHT22;6416;52.182;7.650;2024-03-08T08:56:47;16.60;65.10
12704;DHT22;6416;52.182;7.650;2024-03-08T08:59:13;16.80;64.80
12704;DHT22;6416;52.182;7.650;2024-03-08T09:01:38;17.00;65.00
12704;DHT22;6416;52.182;7.650;2024-03-08T09:04:03;17.20;64.30
12704;DHT22;6416;52.182;7.650;2024-03-08T09:06:29;17.40;64.10
12704;DHT22;6416;52.182;7.650;2024-03-08T09:08:54;17.60;64.30
12704;DHT22;6416;52.182;7.650;2024-03-08T09:11:20;17.90;63.60
12704;DHT22;6416;52.182;7.650;2024-03-08T09:13:45;18.10;62.20
12704;DHT22;6416;52.182;7.650;2024-03-08T09:16:10;18.20;60.60
12704;DHT22;6416;52.182;7.650;2024-03-08T09:18:36;18.30;61.20
12704;DHT22;6416;52.182;7.650;2024-03-08T09:21:01;18.40;59.60
12704;DHT22;6416;52.182;7.650;2024-03-08T09:23:27;18.60;60.40
12704;DHT22;6416;52.182;7.650;2024-03-08T09:25:52;18.70;60.00
12704;DHT22;6416;52.182;7.650;2024-03-08T09:28:17;18.90;59.60
12704;DHT22;6416;52.182;7.650;2024-03-08T09:30:43;19.00;59.90
12704;DHT22;6416;52.182;7.650;2024-03-08T09:33:08;19.20;59.20
12704;DHT22;6416;52.182;7.650;2024-03-08T09:35:34;19.30;58.80
12704;DHT22;6416;52.182;7.650;2024-03-08T09:37:59;19.50;59.40
12704;DHT22;6416;52.182;7.650;2024-03-08T09:40:24;19.70;58.40
12704;DHT22;6416;52.182;7.650;2024-03-08T09:42:50;19.90;59.30
12704;DHT22;6416;52.182;7.650;2024-03-08T09:45:15;20.00;58.00
12704;DHT22;6416;52.182;7.650;2024-03-08T09:47:42;20.20;59.20
12704;DHT22;6416;52.182;7.650;2024-03-08T09:50:08;20.40;59.30
12704;DHT22;6416;52.182;7.650;2024-03-08T09:52:37;20.70;59.20
12704;DHT22;6416;52.182;7.650;2024-03-08T09:55:06;21.00;58.80
12704;DHT22;6416;52.182;7.650;2024-03-08T09:57:35;21.20;59.20
12704;DHT22;6416;52.182;7.650;2024-03-08T10:00:01;21.40;58.20
12704;DHT22;6416;52.182;7.650;2024-03-08T10:02:26;21.70;58.30
12704;DHT22;6416;52.182;7.650;2024-03-08T10:04:52;21.90;58.60
12704;DHT22;6416;52.182;7.650;2024-03-08T10:07:17;22.10;57.90
12704;DHT22;6416;52.182;7.650;2024-03-08T10:09:43;22.40;57.60
12704;DHT22;6416;52.182;7.650;2024-03-08T10:12:08;22.60;59.20
12704;DHT22;6416;52.182;7.650;2024-03-08T10:14:34;22.90;57.80
12704;DHT22;6416;52.182;7.650;2024-03-08T10:16:59;23.10;58.00
12704;DHT22;6416;52.182;7.650;2024-03-08T10:19:25;23.40;58.20
12704;DHT22;6416;52.182;7.650;2024-03-08T10:21:50;23.60;57.30
12704;DHT22;6416;52.182;7.650;2024-03-08T10:24:16;23.90;58.40
12704;DHT22;6416;52.182;7.650;2024-03-08T10:26:42;24.10;57.10
12704;DHT22;6416;52.182;7.650;2024-03-08T10:29:07;24.30;55.60
12704;DHT22;6416;52.182;7.650;2024-03-08T10:31:33;24.50;56.30
12704;DHT22;6416;52.182;7.650;2024-03-08T10:33:58;24.70;54.90
12704;DHT22;6416;52.182;7.650;2024-03-08T10:36:24;24.80;54.50
12704;DHT22;6416;52.182;7.650;2024-03-08T10:38:51;25.00;53.50
12704;DHT22;6416;52.182;7.650;2024-03-08T10:41:18;25.10;52.80
12704;DHT22;6416;52.182;7.650;2024-03-08T10:46:21;25.20;51.70
12704;DHT22;6416;52.182;7.650;2024-03-08T10:48:52;25.30;52.30
12704;DHT22;6416;52.182;7.650;2024-03-08T10:51:20;25.50;50.80
12704;DHT22;6416;52.182;7.650;2024-03-08T10:53:46;25.60;50.90
12704;DHT22;6416;52.182;7.650;2024-03-08T10:56:12;25.70;51.40
12704;DHT22;6416;52.182;7.650;2024-03-08T10:58:38;25.80;49.10
12704;DHT22;6416;52.182;7.650;2024-03-08T11:01:03;25.90;48.80
12704;DHT22;6416;52.182;7.650;2024-03-08T11:06:16;26.10;50.40
12704;DHT22;6416;52.182;7.650;2024-03-08T11:08:41;26.20;48.70
12704;DHT22;6416;52.182;7.650;2024-03-08T11:14:02;26.50;48.70
12704;DHT22;6416;52.182;7.650;2024-03-08T11:18:53;26.80;49.40
12704;DHT22;6416;52.182;7.650;2024-03-08T11:21:18;27.00;47.20
12704;DHT22;6416;52.182;7.650;2024-03-08T11:23:58;27.10;47.40
12704;DHT22;6416;52.182;7.650;2024-03-08T11:26:24;27.20;47.70
12704;DHT22;6416;52.182;7.650;2024-03-08T11:28:49;27.30;46.10
12704;DHT22;6416;52.182;7.650;2024-03-08T11:33:46;27.50;43.10
12704;DHT22;6416;52.182;7.650;2024-03-08T11:36:12;27.50;42.80
12704;DHT22;6416;52.182;7.650;2024-03-08T11:38:41;27.40;44.50
12704;DHT22;6416;52.182;7.650;2024-03-08T11:41:06;27.50;45.50
12704;DHT22;6416;52.182;7.650;2024-03-08T11:43:32;27.50;44.30
12704;DHT22;6416;52.182;7.650;2024-03-08T11:46:13;27.70;45.20
12704;DHT22;6416;52.182;7.650;2024-03-08T11:48:40;27.80;45.60
12704;DHT22;6416;52.182;7.650;2024-03-08T11:51:05;28.00;44.50
12704;DHT22;6416;52.182;7.650;2024-03-08T11:53:31;28.20;43.20
12704;DHT22;6416;52.182;7.650;2024-03-08T11:56:07;28.40;44.40
12704;DHT22;6416;52.182;7.650;2024-03-08T11:58:32;28.40;42.70
12704;DHT22;6416;52.182;7.650;2024-03-08T12:01:05;28.50;42.90
12704;DHT22;6416;52.182;7.650;2024-03-08T12:03:33;28.50;42.00
12704;DHT22;6416;52.182;7.650;2024-03-08T12:05:58;28.60;41.70
12704;DHT22;6416;52.182;7.650;2024-03-08T12:08:24;28.50;40.60
12704;DHT22;6416;52.182;7.650;2024-03-08T12:10:49;28.50;40.30
12704;DHT22;6416;52.182;7.650;2024-03-08T12:13:16;28.50;39.90
12704;DHT22;6416;52.182;7.650;2024-03-08T12:15:41;28.40;39.70
12704;DHT22;6416;52.182;7.650;2024-03-08T12:18:07;28.40;37.50
12704;DHT22;6416;52.182;7.650;2024-03-08T12:20:32;28.30;37.10
12704;DHT22;6416;52.182;7.650;2024-03-08T12:22:58;28.20;38.50
12704;DHT22;6416;52.182;7.650;2024-03-08T12:25:30;28.10;38.00
12704;DHT22;6416;52.182;7.650;2024-03-08T12:27:56;28.10;38.70
12704;DHT22;6416;52.182;7.650;2024-03-08T12:30:22;28.00;38.60
12704;DHT22;6416;52.182;7.650;2024-03-08T12:32:48;28.00;38.40
12704;DHT22;6416;52.182;7.650;2024-03-08T12:35:14;27.90;38.60
12704;DHT22;6416;52.182;7.650;2024-03-08T12:37:39;27.90;38.20
12704;DHT22;6416;52.182;7.650;2024-03-08T12:40:08;28.00;38.50
12704;DHT22;6416;52.182;7.650;2024-03-08T12:42:34;28.00;37.20
12704;DHT22;6416;52.182;7.650;2024-03-08T12:44:59;28.00;38.40
12704;DHT22;6416;52.182;7.650;2024-03-08T12:47:24;28.00;39.00
12704;DHT22;6416;52.182;7.650;2024-03-08T12:49:50;27.80;38.30
12704;DHT22;6416;52.182;7.650;2024-03-08T12:52:15;28.00;38.20
12704;DHT22;6416;52.182;7.650;2024-03-08T12:54:41;28.10;38.80
12704;DHT22;6416;52.182;7.650;2024-03-08T12:57:06;28.10;35.40
12704;DHT22;6416;52.182;7.650;2024-03-08T12:59:31;28.20;37.70
12704;DHT22;6416;52.182;7.650;2024-03-08T13:01:57;28.20;38.20
12704;DHT22;6416;52.182;7.650;2024-03-08T13:04:22;28.20;38.60
12704;DHT22;6416;52.182;7.650;2024-03-08T13:06:48;28.20;37.60
12704;DHT22;6416;52.182;7.650;2024-03-08T13:09:13;28.20;38.20
12704;DHT22;6416;52.182;7.650;2024-03-08T13:11:38;28.20;37.80
12704;DHT22;6416;52.182;7.650;2024-03-08T13:14:04;28.20;37.90
12704;DHT22;6416;52.182;7.650;2024-03-08T13:16:29;28.10;38.20
12704;DHT22;6416;52.182;7.650;2024-03-08T13:18:55;28.10;38.30
12704;DHT22;6416;52.182;7.650;2024-03-08T13:21:20;28.00;37.50
12704;DHT22;6416;52.182;7.650;2024-03-08T13:23:45;28.00;37.00
12704;DHT22;6416;52.182;7.650;2024-03-08T13:26:12;27.80;36.90
12704;DHT22;6416;52.182;7.650;2024-03-08T13:28:37;27.60;34.80
12704;DHT22;6416;52.182;7.650;2024-03-08T13:31:03;27.40;35.60
12704;DHT22;6416;52.182;7.650;2024-03-08T13:33:29;27.10;34.80
12704;DHT22;6416;52.182;7.650;2024-03-08T13:35:54;26.80;35.10
12704;DHT22;6416;52.182;7.650;2024-03-08T13:38:20;26.50;35.60
12704;DHT22;6416;52.182;7.650;2024-03-08T13:40:45;26.30;35.60
12704;DHT22;6416;52.182;7.650;2024-03-08T13:43:10;26.00;34.90
12704;DHT22;6416;52.182;7.650;2024-03-08T13:45:36;25.70;35.30
12704;DHT22;6416;52.182;7.650;2024-03-08T13:48:01;25.40;34.80
12704;DHT22;6416;52.182;7.650;2024-03-08T13:50:28;25.10;35.00
12704;DHT22;6416;52.182;7.650;2024-03-08T13:52:53;24.70;34.70
12704;DHT22;6416;52.182;7.650;2024-03-08T13:55:19;24.40;34.20
12704;DHT22;6416;52.182;7.650;2024-03-08T13:57:44;24.10;33.20
12704;DHT22;6416;52.182;7.650;2024-03-08T14:00:10;23.70;33.80
12704;DHT22;6416;52.182;7.650;2024-03-08T14:02:36;23.40;35.00
12704;DHT22;6416;52.182;7.650;2024-03-08T14:05:01;23.10;34.10
12704;DHT22;6416;52.182;7.650;2024-03-08T14:07:27;22.70;33.00
12704;DHT22;6416;52.182;7.650;2024-03-08T14:09:52;22.40;33.30
12704;DHT22;6416;52.182;7.650;2024-03-08T14:12:17;22.00;33.20
12704;DHT22;6416;52.182;7.650;2024-03-08T14:14:43;21.70;33.80
12704;DHT22;6416;52.182;7.650;2024-03-08T14:17:08;21.40;34.00
12704;DHT22;6416;52.182;7.650;2024-03-08T14:19:33;21.10;34.20
12704;DHT22;6416;52.182;7.650;2024-03-08T14:21:59;20.90;34.20
12704;DHT22;6416;52.182;7.650;2024-03-08T14:24:25;20.60;34.30
12704;DHT22;6416;52.182;7.650;2024-03-08T14:26:50;20.30;34.10
12704;DHT22;6416;52.182;7.650;2024-03-08T14:29:16;20.10;34.50
12704;DHT22;6416;52.182;7.650;2024-03-08T14:31:41;19.80;34.60
12704;DHT22;6416;52.182;7.650;2024-03-08T14:34:07;19.60;34.80
12704;DHT22;6416;52.182;7.650;2024-03-08T14:36:32;19.40;35.20
12704;DHT22;6416;52.182;7.650;2024-03-08T14:38:58;19.30;35.30
12704;DHT22;6416;52.182;7.650;2024-03-08T14:41:23;19.10;35.50
12704;DHT22;6416;52.182;7.650;2024-03-08T14:43:48;19.00;35.60
12704;DHT22;6416;52.182;7.650;2024-03-08T14:46:14;18.90;35.80
12704;DHT22;6416;52.182;7.650;2024-03-08T14:48:40;18.80;36.10
12704;DHT22;6416;52.182;7.650;2024-03-08T14:51:05;18.60;36.00
12704;DHT22;6416;52.182;7.650;2024-03-08T14:53:31;18.50;36.20
12704;DHT22;6416;52.182;7.650;2024-03-08T14:55:56;18.40;36.40
12704;DHT22;6416;52.182;7.650;2024-03-08T14:58:22;18.30;36.40
12704;DHT22;6416;52.182;7.650;2024-03-08T15:00:47;18.20;36.50
12704;DHT22;6416;52.182;7.650;2024-03-08T15:03:12;18.10;36.70
12704;DHT22;6416;52.182;7.650;2024-03-08T15:05:38;18.00;36.50
12704;DHT22;6416;52.182;7.650;2024-03-08T15:08:03;17.90;36.70
12704;DHT22;6416;52.182;7.650;2024-03-08T15:10:29;17.70;36.70
12704;DHT22;6416;52.182;7.650;2024-03-08T15:12:54;17.60;36.80
12704;DHT22;6416;52.182;7.650;2024-03-08T15:15:20;17.50;36.90
12704;DHT22;6416;52.182;7.650;2024-03-08T15:17:45;17.40;37.20
12704;DHT22;6416;52.182;7.650;2024-03-08T15:20:10;17.30;37.30
12704;DHT22;6416;52.182;7.650;2024-03-08T15:22:36;17.20;37.40
12704;DHT22;6416;52.182;7.650;2024-03-08T15:25:01;17.00;37.40
12704;DHT22;6416;52.182;7.650;2024-03-08T15:27:27;17.00;37.60
12704;DHT22;6416;52.182;7.650;2024-03-08T15:29:52;16.90;37.60
12704;DHT22;6416;52.182;7.650;2024-03-08T15:32:17;16.70;37.70
12704;DHT22;6416;52.182;7.650;2024-03-08T15:34:43;16.70;37.90
12704;DHT22;6416;52.182;7.650;2024-03-08T15:37:08;16.60;38.00
12704;DHT22;6416;52.182;7.650;2024-03-08T15:39:34;16.50;38.10
12704;DHT22;6416;52.182;7.650;2024-03-08T15:41:59;16.40;38.20
12704;DHT22;6416;52.182;7.650;2024-03-08T15:44:24;16.40;38.40
12704;DHT22;6416;52.182;7.650;2024-03-08T15:46:50;16.30;38.40
12704;DHT22;6416;52.182;7.650;2024-03-08T15:49:15;16.20;38.40
12704;DHT22;6416;52.182;7.650;2024-03-08T15:51:41;16.20;38.60
12704;DHT22;6416;52.182;7.650;2024-03-08T15:54:06;16.20;38.80
12704;DHT22;6416;52.182;7.650;2024-03-08T15:56:31;16.10;38.80